Pagina principale
METAR-TAF:

METAR-TAF

Aeroporti :

Base aerea di Sigonella

Sigonella, Italia

latitudine: 37-24N, longitudine: 014-55E, altezza: 22 m

Osservazione

Il bollettino è stato emesso 37 minuti fa, alle 22:55 UTC
Vento 10 kt da ovest
Temperature 15°C
Umidità 39%
Pressione 1015 hPa
Visibilità 10 km o più
nessuna nube inferiore a 1500 m e nessun cumulonembo

METAR: LICZ 152255Z 27010KT CAVOK 15/01 Q1015 RMK SKC VIS MIN 9999 WIND THR28 26008KT WIND THR10 27008KT A2999 BLU

Ora: 01:32 (23:32 UTC)

Previsione

Il bollettino è stato emesso 6 ore e 32 minuti fa, alle 17:00 UTC
Previsione valida dal 15 alle 18 UTC al 16 alle 18 UTC
Vento 7 kt da ovest
Visibilità 10 km o più
nessuna nube inferiore a 1500 m e nessun cumulonembo
Evoluzione graduale
dal 16 alle 11 UTC al 16 alle 13 UTC
Vento 12 kt da est

TAF: LICZ 151700Z 1518/1618 28007KT CAVOK BECMG 1611/1613 10012KT

Osservazioni e previsioni meteorologiche di più di 4000 aeroporti (messaggi METAR e TAF).

Le stazioni disponibili sono rappresentate dai dischi gialli e rossi sulla carta.

Puntare il mouse per vedere il nome della stazione.

Clicca sopra per visualizzare le osservazioni e previsioni meteorologiche.

Per cambiare la mappa : fare clic sui pulsanti verdi con una croce nera per ingrandire, il pulsante verde con un trattino per diminuire, o sulla freccia verde per le mappe adiacenti.


METAR-TAF: